Welcome to Northern Hawkes Bay. New Zealand.
PWS Header
      nz Flag



Hit Counter


W3C Valid W3C Valid logo


    Wairoa

Select any of the Stations below to visit their websites.










Historic Data from Weather Underground
Select the location of interest below. Wairoa is the default. Please have patience, this Data is slow to load in.
Northern Hawkes Bay Historical Data
Daily Summary for March 7, 2017 Units:  English    Metric   Both
« Previous Day
Next Day »
Daily Weekly Monthly Yearly Custom
  High: Low: Average:
Temperature: 77.9 °F 56.5 °F 64.6 °F
Dew Point: 63.9 °F 52.2 °F 57.4 °F
Humidity: 99% 43% 80%
Wind Speed: 25.1mph 0mph 4mph
Wind Gust: 32.7mph - -
Wind- - WSW
Pressure: 29.9 in 29.7 in -
Precipitation: 0.57 in    
Historical Graphs
 
 
Tabular Data for March 7, 2017
Time Temperature Dew Point Pressure Wind Wind Speed Wind Gust Humidity Rainfall Rate (Hourly) solar
00:01 59.9 °F 59.4 °F 29.8 in North 2.2 mph 4.5 mph 98% 0 in 0 W/m2
00:06 59.9 °F 59.4 °F 29.8 in North 2.2 mph 3.8 mph 98% 0 in 0 W/m2
00:11 59.9 °F 59.2 °F 29.8 in NNW 2.2 mph 3.8 mph 97% 0 in 0 W/m2
00:16 59.7 °F 58.8 °F 29.8 in NW 1.6 mph 3.8 mph 97% 0 in 0 W/m2
00:21 59.5 °F 58.6 °F 29.8 in NW 2.2 mph 3.8 mph 97% 0 in 0 W/m2
00:26 59.5 °F 58.6 °F 29.8 in NW 2.2 mph 3.8 mph 97% 0 in 0 W/m2
00:31 59.4 °F 58.5 °F 29.8 in NNW 4.5 mph 6 mph 97% 0 in 0 W/m2
00:36 59.4 °F 58.5 °F 29.8 in NNW 1.6 mph 6 mph 97% 0 in 0 W/m2
00:41 59.4 °F 58.5 °F 29.8 in North 3.8 mph 5.4 mph 97% 0 in 0 W/m2
00:46 59.4 °F 58.5 °F 29.8 in NNW 1.6 mph 4.5 mph 97% 0 in 0 W/m2
00:51 59.4 °F 58.5 °F 29.8 in NNW 1.6 mph 4.5 mph 97% 0 in 0 W/m2
00:56 59.4 °F 58.5 °F 29.8 in North 1.6 mph 6 mph 97% 0 in 0 W/m2
01:01 59.4 °F 58.5 °F 29.8 in North 2.2 mph 6 mph 97% 0 in 0 W/m2
01:06 59.4 °F 58.5 °F 29.8 in NNW 2.2 mph 4.5 mph 97% 0 in 0 W/m2
01:11 59.2 °F 58.3 °F 29.8 in NNW 3.1 mph 4.5 mph 97% 0 in 0 W/m2
01:16 59 °F 57.9 °F 29.8 in NW 2.2 mph 4.5 mph 96% 0 in 0 W/m2
01:21 59 °F 57.9 °F 29.8 in NNW 2.2 mph 5.4 mph 96% 0 in 0 W/m2
01:26 59 °F 57.9 °F 29.8 in NNW 3.8 mph 6 mph 96% 0 in 0 W/m2
01:31 59 °F 57.9 °F 29.8 in NNW 2.2 mph 6 mph 96% 0 in 0 W/m2
01:36 58.8 °F 57.9 °F 29.8 in NW 4.5 mph 5.4 mph 97% 0 in 0 W/m2
01:41 58.6 °F 57.7 °F 29.8 in NNW 3.8 mph 6 mph 97% 0 in 0 W/m2
01:46 58.6 °F 57.7 °F 29.8 in NNW 3.1 mph 6 mph 97% 0 in 0 W/m2
01:51 58.3 °F 57.7 °F 29.8 in NNW 3.1 mph 5.4 mph 98% 0 in 0 W/m2
01:56 58.1 °F 57.6 °F 29.8 in NNW 3.1 mph 5.4 mph 98% 0 in 0 W/m2
02:01 58.1 °F 57.6 °F 29.8 in NNW 3.1 mph 6 mph 98% 0 in 0 W/m2
02:06 58.1 °F 57.6 °F 29.8 in NW 1.6 mph 6 mph 98% 0 in 0 W/m2
02:11 57.7 °F 57.2 °F 29.8 in NW 1.6 mph 4.5 mph 98% 0 in 0 W/m2
02:16 57.6 °F 57 °F 29.8 in NW 1.6 mph 3.8 mph 98% 0 in 0 W/m2
02:21 57.6 °F 57 °F 29.8 in NW 0.7 mph 3.8 mph 98% 0 in 0 W/m2
02:26 57.2 °F 56.7 °F 29.8 in NNW 2.2 mph 3.8 mph 98% 0 in 0 W/m2
02:31 57.2 °F 56.7 °F 29.8 in NNW 2.2 mph 3.8 mph 98% 0 in 0 W/m2
02:36 57.2 °F 56.7 °F 29.8 in NNW 1.6 mph 3.8 mph 98% 0 in 0 W/m2
02:41 57 °F 56.8 °F 29.8 in NW 0.7 mph 4.5 mph 99% 0 in 0 W/m2
02:46 57.2 °F 56.8 °F 29.8 in NW 2.2 mph 5.4 mph 99% 0 in 0 W/m2
02:51 57.7 °F 57.6 °F 29.8 in NNW 2.2 mph 5.4 mph 99% 0 in 0 W/m2
02:56 57.6 °F 57.4 °F 29.8 in NNW 2.2 mph 4.5 mph 99% 0 in 0 W/m2
03:01 57.9 °F 57.7 °F 29.8 in NNW 1.6 mph 6 mph 99% 0 in 0 W/m2
03:06 58.3 °F 57.9 °F 29.8 in North 5.4 mph 6 mph 99% 0 in 0 W/m2
03:11 58.3 °F 57.9 °F 29.8 in North 3.8 mph 6.9 mph 99% 0 in 0 W/m2
03:16 58.6 °F 58.5 °F 29.8 in NNW 3.8 mph 7.6 mph 99% 0 in 0 W/m2
03:21 58.6 °F 58.5 °F 29.8 in NNW 3.8 mph 7.6 mph 99% 0 in 0 W/m2
03:26 58.6 °F 58.5 °F 29.8 in NNW 4.5 mph 6.9 mph 99% 0 in 0 W/m2
03:36 58.5 °F 57.9 °F 29.8 in NNW 3.8 mph 7.6 mph 98% 0 in 0 W/m2
03:41 58.5 °F 57.6 °F 29.8 in NNW 2.2 mph 6 mph 97% 0 in 0 W/m2
03:46 58.5 °F 57.6 °F 29.8 in NNW 5.4 mph 8.3 mph 97% 0 in 0 W/m2
03:51 58.6 °F 57.7 °F 29.8 in NNW 4.5 mph 8.3 mph 97% 0 in 0 W/m2
03:56 59 °F 57.9 °F 29.8 in NNW 6 mph 9.2 mph 96% 0 in 0 W/m2
04:01 59 °F 57.9 °F 29.8 in North 4.5 mph 9.2 mph 96% 0 in 0 W/m2
04:06 59 °F 57.6 °F 29.8 in North 3.8 mph 9.2 mph 95% 0 in 0 W/m2
04:11 58.8 °F 57.7 °F 29.8 in North 4.5 mph 7.6 mph 96% 0 in 0 W/m2
04:16 58.8 °F 57.7 °F 29.8 in NNW 5.4 mph 8.3 mph 96% 0 in 0 W/m2
04:21 58.8 °F 57.7 °F 29.8 in NNW 3.8 mph 8.3 mph 96% 0 in 0 W/m2
04:26 58.8 °F 57.7 °F 29.8 in NNW 3.1 mph 8.3 mph 96% 0 in 0 W/m2
04:31 58.8 °F 57.7 °F 29.8 in NNW 4.5 mph 8.3 mph 96% 0 in 0 W/m2
04:36 58.8 °F 57.4 °F 29.8 in NNW 3.1 mph 8.3 mph 95% 0 in 0 W/m2
04:41 58.5 °F 57 °F 29.8 in NNW 3.1 mph 6 mph 95% 0 in 0 W/m2
04:46 58.3 °F 56.8 °F 29.8 in NNW 3.8 mph 5.4 mph 95% 0 in 0 W/m2
04:51 58.1 °F 56.7 °F 29.8 in NNW 3.1 mph 6 mph 95% 0 in 0 W/m2
04:56 58.1 °F 57 °F 29.8 in NNW 2.2 mph 6 mph 96% 0 in 0 W/m2
05:01 58.3 °F 57.2 °F 29.8 in North 2.2 mph 5.4 mph 96% 0 in 0 W/m2
05:06 57.9 °F 56.8 °F 29.8 in NNW 3.1 mph 5.4 mph 96% 0 in 0 W/m2
05:11 57.7 °F 56.7 °F 29.8 in NNW 5.4 mph 6.9 mph 96% 0 in 0 W/m2
05:16 57.7 °F 56.7 °F 29.8 in NW 4.5 mph 6.9 mph 96% 0 in 0 W/m2
05:21 57.6 °F 56.5 °F 29.8 in NW 3.1 mph 6.9 mph 96% 0 in 0 W/m2
05:26 57.6 °F 56.7 °F 29.8 in NNW 3.8 mph 6.9 mph 97% 0 in 0 W/m2
05:31 57.6 °F 56.7 °F 29.8 in NW 2.2 mph 6.9 mph 97% 0 in 0 W/m2
05:36 57.4 °F 56.5 °F 29.8 in NW 3.1 mph 6.9 mph 97% 0 in 0 W/m2
05:41 57.2 °F 56.5 °F 29.8 in NW 3.8 mph 6 mph 97% 0 in 0 W/m2
05:46 57.2 °F 56.5 °F 29.8 in NW 5.4 mph 7.6 mph 97% 0 in 0 W/m2
05:51 57.2 °F 56.5 °F 29.8 in NNW 3.8 mph 7.6 mph 97% 0 in 0 W/m2
05:56 57.2 °F 56.5 °F 29.8 in NNW 3.8 mph 6.9 mph 97% 0 in 0 W/m2
06:01 57 °F 56.5 °F 29.8 in NNW 2.2 mph 6.9 mph 98% 0 in 0 W/m2
06:06 56.8 °F 56.3 °F 29.8 in North 1.6 mph 6 mph 98% 0 in 0 W/m2
06:11 57 °F 56.5 °F 29.8 in Calm   3.8 mph 98% 0 in 0 W/m2
06:16 57 °F 56.5 °F 29.8 in Calm   3.1 mph 98% 0 in 0 W/m2
06:21 56.8 °F 56.3 °F 29.8 in NW 0.7 mph 3.8 mph 98% 0 in 0 W/m2
06:26 57 °F 56.1 °F 29.8 in NW 1.6 mph 3.8 mph 97% 0 in 0 W/m2
06:31 57 °F 56.1 °F 29.8 in NW 2.2 mph 4.5 mph 97% 0 in 0 W/m2
06:36 56.8 °F 55.9 °F 29.7 in NNW 1.6 mph 4.5 mph 97% 0 in 0 W/m2
06:41 56.7 °F 55.8 °F 29.7 in NNW 2.2 mph 4.5 mph 97% 0 in 0 W/m2
06:46 56.7 °F 55.8 °F 29.8 in NW 5.4 mph 6.9 mph 97% 0 in 0 W/m2
06:51 56.5 °F 55.9 °F 29.8 in NW 3.8 mph 6.9 mph 98% 0 in 0 W/m2
06:56 56.5 °F 55.9 °F 29.8 in NW 3.1 mph 6.9 mph 98% 0 in 0 W/m2
07:01 56.5 °F 55.9 °F 29.8 in NNW 2.2 mph 6.9 mph 98% 0 in 0 W/m2
07:06 56.5 °F 55.9 °F 29.8 in North 3.1 mph 7.6 mph 98% 0 in 3 W/m2
07:11 56.5 °F 55.9 °F 29.8 in North 1.6 mph 7.6 mph 98% 0 in 5 W/m2
07:16 56.5 °F 55.9 °F 29.8 in Calm   5.4 mph 98% 0 in 8 W/m2
07:21 56.5 °F 55.9 °F 29.8 in WSW 0.7 mph 4.5 mph 98% 0 in 15 W/m2
07:26 56.5 °F 55.9 °F 29.8 in Calm   3.8 mph 98% 0 in 21 W/m2
07:31 56.7 °F 56.1 °F 29.8 in Calm   2.2 mph 98% 0 in 28 W/m2
07:36 56.7 °F 56.1 °F 29.8 in Calm   2.2 mph 98% 0 in 40 W/m2
07:41 57 °F 56.5 °F 29.8 in Calm     98% 0 in 47 W/m2
07:46 57.2 °F 56.5 °F 29.8 in Calm   0.7 mph 97% 0 in 50 W/m2
07:51 57.6 °F 56.7 °F 29.8 in North 3.8 mph 5.4 mph 97% 0 in 56 W/m2
07:56 57.9 °F 56.8 °F 29.8 in NNW 2.2 mph 6.9 mph 96% 0 in 93 W/m2
08:01 58.5 °F 57.4 °F 29.8 in NW 0.7 mph 6.9 mph 96% 0 in 69 W/m2
08:06 58.6 °F 57.2 °F 29.8 in NW 3.1 mph 4.5 mph 95% 0 in 78 W/m2
08:11 58.6 °F 56.8 °F 29.8 in WNW 3.1 mph 5.4 mph 94% 0 in 84 W/m2
08:16 58.6 °F 56.8 °F 29.8 in NW 3.8 mph 5.4 mph 94% 0 in 86 W/m2
08:21 58.8 °F 56.8 °F 29.8 in North 2.2 mph 5.4 mph 93% 0 in 93 W/m2
08:26 59 °F 56.7 °F 29.8 in North 0.7 mph 5.4 mph 92% 0 in 84 W/m2
08:31 59.2 °F 56.8 °F 29.8 in NNW 4.5 mph 5.4 mph 92% 0 in 80 W/m2
08:36 59.4 °F 56.5 °F 29.8 in NNW 1.6 mph 5.4 mph 90% 0 in 84 W/m2
08:41 59.7 °F 56.5 °F 29.8 in Calm   3.8 mph 89% 0 in 89 W/m2
08:46 59.9 °F 56.5 °F 29.8 in NNW 2.2 mph 3.8 mph 88% 0 in 90 W/m2
08:51 60.3 °F 56.5 °F 29.8 in NNW 1.6 mph 3.8 mph 87% 0 in 94 W/m2
08:56 60.4 °F 56.7 °F 29.8 in NW 1.6 mph 3.8 mph 87% 0 in 97 W/m2
09:01 60.6 °F 56.5 °F 29.8 in NW 2.2 mph 5.4 mph 86% 0 in 96 W/m2
09:06 60.8 °F 56.3 °F 29.8 in Calm   5.4 mph 85% 0 in 92 W/m2
09:11 60.8 °F 56.3 °F 29.8 in NW 1.6 mph 3.8 mph 85% 0 in 77 W/m2
09:16 60.4 °F 56.1 °F 29.8 in NW 1.6 mph 4.5 mph 86% 0 in 67 W/m2
09:21 60.4 °F 56.1 °F 29.8 in Calm   4.5 mph 86% 0 in 69 W/m2
09:26 60.8 °F 56.3 °F 29.8 in Calm   3.8 mph 85% 0 in 80 W/m2
09:31 61 °F 56.5 °F 29.8 in NNW 0.7 mph 3.1 mph 85% 0 in 87 W/m2
09:36 61 °F 56.5 °F 29.8 in Calm   3.1 mph 85% 0 in 95 W/m2
09:41 61.3 °F 56.8 °F 29.8 in North 3.8 mph 5.4 mph 85% 0 in 97 W/m2
09:46 61.5 °F 57 °F 29.8 in North 2.2 mph 5.4 mph 85% 0 in 99 W/m2
09:51 61.7 °F 56.8 °F 29.8 in Calm   5.4 mph 84% 0 in 107 W/m2
09:56 62.1 °F 57.2 °F 29.8 in NW 0.7 mph 5.4 mph 84% 0 in 112 W/m2
10:01 62.2 °F 57.4 °F 29.8 in NW 2.2 mph 4.5 mph 84% 0 in 119 W/m2
10:06 62.2 °F 57.4 °F 29.8 in NW 1.6 mph 4.5 mph 84% 0 in 128 W/m2
10:11 62.4 °F 57.6 °F 29.8 in NW 2.2 mph 4.5 mph 84% 0 in 134 W/m2
10:16 62.4 °F 57.6 °F 29.8 in NW 3.1 mph 6.9 mph 84% 0 in 135 W/m2
10:21 62.4 °F 57.6 °F 29.8 in NNW 0.7 mph 6.9 mph 84% 0 in 124 W/m2
10:26 62.8 °F 57.6 °F 29.8 in Calm   6 mph 83% 0 in 136 W/m2
10:31 63.3 °F 58.1 °F 29.8 in Calm   2.2 mph 83% 0 in 160 W/m2
10:36 63.9 °F 58.3 °F 29.8 in NNW 2.2 mph 5.4 mph 82% 0 in 178 W/m2
10:41 64 °F 58.1 °F 29.8 in NNW 1.6 mph 5.4 mph 81% 0 in 189 W/m2
10:45 64.6 °F 58.3 °F 29.8 in Calm   5.4 mph 80% 0 in 194 W/m2
10:51 65.7 °F 59.4 °F 29.8 in Calm   3.1 mph 80% 0 in 215 W/m2
10:56 66.6 °F 59.5 °F 29.8 in Calm     78% 0 in 238 W/m2
11:01 68.2 °F 59.2 °F 29.8 in Calm   0.7 mph 73% 0 in 284 W/m2
11:06 68.7 °F 58.6 °F 29.8 in Calm   2.2 mph 70% 0 in 252 W/m2
11:11 68.9 °F 58.3 °F 29.8 in NNW 0.7 mph 2.2 mph 69% 0 in 235 W/m2
11:16 68.7 °F 57.4 °F 29.8 in NNW 2.2 mph 4.5 mph 67% 0 in 263 W/m2
11:21 68.5 °F 57.2 °F 29.8 in NNW 3.1 mph 4.5 mph 67% 0 in 276 W/m2
11:26 68.7 °F 56.8 °F 29.8 in NNW 1.6 mph 4.5 mph 66% 0 in 249 W/m2
11:28 68.9 °F 57 °F 29.8 in NNW 0.7 mph 4.5 mph 66% 0 in 244 W/m2
11:33 69.3 °F 57 °F 29.8 in Calm   3.8 mph 65% 0 in 230 W/m2
11:38 69.3 °F 56.7 °F 29.8 in NNW 1.6 mph 3.8 mph 64% 0 in 220 W/m2
11:43 69.1 °F 55.6 °F 29.8 in NNW 0.7 mph 3.8 mph 62% 0 in 242 W/m2
11:48 70 °F 55.9 °F 29.8 in Calm   3.8 mph 61% 0 in 246 W/m2
11:53 70.5 °F 53.6 °F 29.8 in Calm   3.1 mph 55% 0 in 264 W/m2
11:58 71.4 °F 54 °F 29.8 in Calm   2.2 mph 54% 0 in 257 W/m2
12:03 72.3 °F 52.2 °F 29.8 in NW 0.7 mph 2.2 mph 49% 0 in 254 W/m2
12:08 72.3 °F 52.2 °F 29.8 in Calm   2.2 mph 49% 0 in 270 W/m2
12:12 73 °F 53.2 °F 29.8 in Calm   2.2 mph 50% 0 in 294 W/m2
12:17 73.4 °F 53.1 °F 29.8 in Calm   2.2 mph 49% 0 in 318 W/m2
12:21 73.9 °F 53.1 °F 29.8 in NNW 2.2 mph 4.5 mph 48% 0 in 352 W/m2
12:26 73.6 °F 52.2 °F 29.8 in Calm   4.5 mph 47% 0 in 363 W/m2
12:31 74.1 °F 53.2 °F 29.8 in Calm   3.8 mph 48% 0 in 356 W/m2
12:36 74.8 °F 53.2 °F 29.8 in NE 2.2 mph 3.8 mph 47% 0 in 445 W/m2
12:41 75 °F 53.4 °F 29.8 in Calm   4.5 mph 47% 0 in 429 W/m2
12:46 75 °F 52.9 °F 29.8 in NE 1.6 mph 4.5 mph 46% 0 in 592 W/m2
12:51 75.7 °F 52.9 °F 29.8 in Calm   4.5 mph 45% 0 in 519 W/m2
12:56 77.5 °F 53.2 °F 29.8 in East 1.6 mph 4.5 mph 43% 0 in 776 W/m2
13:01 77.9 °F 53.6 °F 29.8 in Calm   4.5 mph 43% 0 in 568 W/m2
13:06 77.7 °F 53.4 °F 29.8 in ESE 2.2 mph 4.5 mph 43% 0 in 405 W/m2
13:11 76.5 °F 53.1 °F 29.8 in East 3.1 mph 4.5 mph 44% 0 in 607 W/m2
13:16 76.6 °F 53.8 °F 29.8 in Calm   4.5 mph 45% 0 in 630 W/m2
13:21 77.2 °F 53.6 °F 29.8 in East 2.2 mph 4.5 mph 44% 0 in 516 W/m2
13:26 77.2 °F 54.1 °F 29.8 in ESE 3.8 mph 4.5 mph 45% 0 in 657 W/m2
13:29 77.2 °F 53.6 °F 29.8 in SE 3.1 mph 5.4 mph 44% 0 in 551 W/m2
13:33 77.2 °F 54.1 °F 29.8 in SSE 3.8 mph 6 mph 45% 0 in 577 W/m2
13:38 76.6 °F 54.3 °F 29.8 in South 1.6 mph 6.9 mph 46% 0 in 471 W/m2
13:43 77.2 °F 54.1 °F 29.8 in South 3.8 mph 6.9 mph 45% 0 in 588 W/m2
13:48 77 °F 54.7 °F 29.8 in SSE 1.6 mph 6 mph 46% 0 in 695 W/m2
13:53 77 °F 55.2 °F 29.8 in SE 1.6 mph 6 mph 47% 0 in 725 W/m2
13:56 77.5 °F 56.8 °F 29.8 in SSE 4.5 mph 6.9 mph 49% 0 in 603 W/m2
14:02 76.1 °F 56.7 °F 29.8 in SSE 3.1 mph 7.6 mph 51% 0 in 797 W/m2
14:07 76.6 °F 58.8 °F 29.8 in SSE 5.4 mph 7.6 mph 54% 0 in 728 W/m2
14:12 76.3 °F 56.8 °F 29.8 in SSE 4.5 mph 7.6 mph 51% 0 in 558 W/m2
14:17 75.4 °F 57 °F 29.8 in South 5.4 mph 8.3 mph 53% 0 in 551 W/m2
14:19 75 °F 56.8 °F 29.8 in South 6 mph 8.3 mph 53% 0 in 552 W/m2
14:24 74.5 °F 57.7 °F 29.8 in South 6 mph 8.3 mph 56% 0 in 536 W/m2
14:29 74.3 °F 58.1 °F 29.8 in SSE 7.6 mph 9.8 mph 57% 0 in 470 W/m2
14:34 73.8 °F 57.6 °F 29.8 in SSE 4.5 mph 9.8 mph 57% 0 in 567 W/m2
14:39 73.4 °F 58.3 °F 29.8 in SSE 6.9 mph 10.7 mph 59% 0 in 477 W/m2
14:45 74.1 °F 59.4 °F 29.8 in SSE 4.5 mph 10.7 mph 60% 0 in 661 W/m2
14:50 74.8 °F 60.4 °F 29.8 in SSE 4.5 mph 9.8 mph 61% 0 in 479 W/m2
14:55 75.6 °F 58.8 °F 29.8 in South 2.2 mph 9.8 mph 56% 0 in 301 W/m2
15:00 75.2 °F 59 °F 29.8 in SSE 3.8 mph 8.3 mph 57% 0 in 323 W/m2
15:05 73.9 °F 58.6 °F 29.8 in SSE 3.1 mph 7.6 mph 59% 0 in 256 W/m2
15:10 73.2 °F 59 °F 29.8 in SSE 3.1 mph 7.6 mph 61% 0 in 259 W/m2
15:15 72.7 °F 57.9 °F 29.8 in SSE 5.4 mph 7.6 mph 60% 0 in 272 W/m2
15:20 72.3 °F 59.5 °F 29.8 in South 4.5 mph 9.2 mph 64% 0 in 265 W/m2
15:25 72.1 °F 59.7 °F 29.8 in SSE 6.9 mph 9.2 mph 65% 0 in 234 W/m2
15:30 71.6 °F 59.7 °F 29.8 in SSE 6 mph 9.8 mph 66% 0 in 267 W/m2
15:35 72 °F 60.1 °F 29.7 in SSE 3.1 mph 9.8 mph 66% 0 in 242 W/m2
15:40 72 °F 60.4 °F 29.8 in SSE 2.2 mph 9.2 mph 67% 0 in 265 W/m2
15:45 72 °F 60.1 °F 29.8 in SSE 1.6 mph 8.3 mph 66% 0 in 295 W/m2
15:50 72.1 °F 59.7 °F 29.8 in SE 0.7 mph 7.6 mph 65% 0 in 277 W/m2
15:55 72.5 °F 59.2 °F 29.8 in SE 3.1 mph 7.6 mph 63% 0 in 260 W/m2
16:00 72.1 °F 58.5 °F 29.8 in SSE 3.8 mph 8.3 mph 62% 0 in 251 W/m2
16:05 72 °F 58.3 °F 29.8 in SSE 3.8 mph 8.3 mph 62% 0 in 224 W/m2
16:10 72.1 °F 56.7 °F 29.7 in SE 3.1 mph 6.9 mph 58% 0 in 217 W/m2
16:15 72.3 °F 57.2 °F 29.7 in Calm   6.9 mph 59% 0 in 214 W/m2
16:20 72.3 °F 57.7 °F 29.7 in SSE 3.1 mph 6.9 mph 60% 0 in 199 W/m2
16:25 72.1 °F 57.9 °F 29.7 in SSE 2.2 mph 6.9 mph 61% 0 in 186 W/m2
16:30 72.3 °F 58.1 °F 29.7 in SSE 0.7 mph 6 mph 61% 0 in 191 W/m2
16:35 72.3 °F 55.2 °F 29.7 in SSE 2.2 mph 5.4 mph 55% 0 in 195 W/m2
16:40 72.3 °F 55.8 °F 29.7 in SE 3.1 mph 4.5 mph 56% 0 in 184 W/m2
16:45 72.3 °F 54.9 °F 29.7 in ESE 1.6 mph 4.5 mph 54% 0 in 180 W/m2
16:50 72.3 °F 54.9 °F 29.7 in ESE 3.1 mph 6 mph 54% 0 in 172 W/m2
16:55 72 °F 54.9 °F 29.7 in East 1.6 mph 6 mph 55% 0 in 162 W/m2
17:00 72.1 °F 55 °F 29.8 in Calm   6 mph 55% 0 in 160 W/m2
17:05 72.1 °F 55 °F 29.7 in East 3.1 mph 3.8 mph 55% 0 in 147 W/m2
17:10 71.8 °F 54.9 °F 29.8 in Calm   4.5 mph 55% 0 in 131 W/m2
17:15 71.8 °F 54.3 °F 29.8 in ENE 1.6 mph 4.5 mph 54% 0 in 122 W/m2
17:20 71.8 °F 54.9 °F 29.8 in East 2.2 mph 3.1 mph 55% 0 in 124 W/m2
17:25 71.8 °F 55.8 °F 29.8 in Calm   3.8 mph 57% 0 in 126 W/m2
17:30 72 °F 55.9 °F 29.8 in Calm   3.8 mph 57% 0 in 124 W/m2
17:35 72 °F 55.9 °F 29.8 in Calm   3.1 mph 57% 0 in 119 W/m2
17:40 72 °F 56.8 °F 29.8 in Calm   3.1 mph 59% 0 in 113 W/m2
17:45 72 °F 56.8 °F 29.8 in ESE 2.2 mph 4.5 mph 59% 0 in 104 W/m2
17:50 71.4 °F 57.4 °F 29.8 in Calm   4.5 mph 61% 0 in 92 W/m2
17:55 71.4 °F 57.7 °F 29.8 in Calm   4.5 mph 62% 0 in 92 W/m2
18:00 71.4 °F 58.3 °F 29.8 in Calm   2.2 mph 63% 0 in 98 W/m2
18:05 71.6 °F 57.9 °F 29.8 in Calm   2.2 mph 62% 0 in 95 W/m2
18:10 71.6 °F 58.5 °F 29.8 in Calm     63% 0 in 87 W/m2
18:15 71.6 °F 58.8 °F 29.8 in SSE 0.7 mph 3.1 mph 64% 0 in 83 W/m2
18:20 71.4 °F 59.9 °F 29.8 in Calm   3.8 mph 67% 0 in 76 W/m2
18:25 70.9 °F 59.7 °F 29.8 in SSE 0.7 mph 3.8 mph 68% 0 in 66 W/m2
18:30 70.7 °F 60.1 °F 29.8 in Calm   3.1 mph 69% 0 in 57 W/m2
18:35 70.3 °F 59.4 °F 29.8 in Calm   2.2 mph 68% 0 in 48 W/m2
18:40 70.3 °F 59.4 °F 29.8 in Calm     68% 0 in 40 W/m2
18:45 70 °F 59 °F 29.8 in South 0.7 mph 2.2 mph 68% 0 in 32 W/m2
18:50 69.6 °F 59.4 °F 29.8 in Calm   3.1 mph 70% 0 in 29 W/m2
18:55 69.6 °F 59.7 °F 29.8 in Calm   3.1 mph 71% 0 in 23 W/m2
19:00 69.3 °F 59.9 °F 29.8 in Calm   3.1 mph 72% 0 in 18 W/m2
19:05 69.1 °F 59.7 °F 29.8 in Calm   3.1 mph 72% 0 in 12 W/m2
19:10 68.7 °F 59.4 °F 29.8 in Calm   3.1 mph 72% 0 in 7 W/m2
19:15 68.7 °F 59.4 °F 29.8 in Calm   3.1 mph 72% 0 in 4 W/m2
19:20 68.5 °F 58.8 °F 29.8 in Calm   3.8 mph 71% 0 in 4 W/m2
19:25 68.4 °F 58.3 °F 29.8 in East 0.7 mph 3.8 mph 70% 0 in 4 W/m2
19:30 68.5 °F 57.6 °F 29.8 in Calm   5.4 mph 68% 0 in 1 W/m2
19:35 68.5 °F 57.6 °F 29.8 in Calm   5.4 mph 68% 0 in 0 W/m2
19:40 68.4 °F 57.7 °F 29.8 in Calm   1.6 mph 69% 0 in 0 W/m2
19:45 68.2 °F 57.6 °F 29.8 in Calm   1.6 mph 69% 0 in 0 W/m2
19:50 68 °F 57.9 °F 29.8 in Calm   0.7 mph 70% 0 in 0 W/m2
19:55 68 °F 58.3 °F 29.8 in Calm   0.7 mph 71% 0 in 0 W/m2
20:00 68 °F 57.9 °F 29.8 in Calm   2.2 mph 70% 0 in 0 W/m2
20:05 68.2 °F 58.8 °F 29.8 in Calm   2.2 mph 72% 0 in 0 W/m2
20:10 68 °F 58.6 °F 29.8 in SSW 1.6 mph 3.8 mph 72% 0 in 0 W/m2
20:15 68 °F 57.9 °F 29.8 in SSW 3.1 mph 5.4 mph 70% 0 in 0 W/m2
20:20 68.2 °F 60.1 °F 29.8 in Calm   5.4 mph 75% 0 in 0 W/m2
20:25 68.2 °F 61.3 °F 29.8 in South 1.6 mph 3.8 mph 79% 0.01 in 0 W/m2
20:30 67.8 °F 63.1 °F 29.8 in South 4.5 mph 6.9 mph 85% 0.01 in 0 W/m2
20:35 67.5 °F 63.5 °F 29.8 in SSW 5.4 mph 9.2 mph 87% 0.01 in 0 W/m2
20:40 67.5 °F 63.9 °F 29.8 in SW 9.8 mph 17.4 mph 88% 0.01 in 0 W/m2
20:46 65.7 °F 61.7 °F 29.8 in SSW 19.7 mph 27.3 mph 87% 0.01 in 0 W/m2
20:51 63.5 °F 60.4 °F 29.8 in SSW 20.6 mph 31.1 mph 90% 0.01 in 0 W/m2
20:56 63 °F 60.6 °F 29.8 in South 17.4 mph 31.1 mph 92% 0.01 in 0 W/m2
21:01 62.8 °F 60.6 °F 29.8 in SSW 13 mph 27.3 mph 93% 0.02 in 0 W/m2
21:06 62.4 °F 60.6 °F 29.9 in SSW 18.3 mph 26.6 mph 94% 0.02 in 0 W/m2
21:11 62.2 °F 60.4 °F 29.9 in SSW 19 mph 31.1 mph 94% 0.02 in 0 W/m2
21:16 62.2 °F 60.3 °F 29.9 in SSW 17.4 mph 31.1 mph 93% 0.02 in 0 W/m2
21:21 62.1 °F 60.1 °F 29.9 in SSW 24.4 mph 29.8 mph 93% 0.04 in 0 W/m2
21:26 62.1 °F 60.1 °F 29.9 in SSW 15.9 mph 30.4 mph 93% 0.02 in 0 W/m2
21:31 61.7 °F 59.7 °F 29.9 in SSW 17.4 mph 32.7 mph 93% 0.02 in 0 W/m2
21:36 61.7 °F 59.7 °F 29.9 in SSW 14.5 mph 32.7 mph 93% 0.02 in 0 W/m2
21:40 61.7 °F 60.1 °F 29.9 in SSW 19.7 mph 28.2 mph 94% 0.02 in 0 W/m2
21:45 61.5 °F 59.7 °F 29.9 in SSW 13.6 mph 28.2 mph 94% 0.04 in 0 W/m2
21:50 61.2 °F 59.4 °F 29.9 in SSW 17.4 mph 31.1 mph 94% 0.05 in 0 W/m2
21:55 61 °F 59.4 °F 29.9 in SSW 17.4 mph 31.1 mph 94% 0.05 in 0 W/m2
22:00 61 °F 59.5 °F 29.9 in SSW 17.4 mph 31.1 mph 95% 0.05 in 0 W/m2
22:05 61 °F 59.5 °F 29.9 in SSW 19 mph 27.3 mph 95% 0.06 in 0 W/m2
22:10 61 °F 59.5 °F 29.9 in SSW 22.8 mph 26.6 mph 95% 0.06 in 0 W/m2
22:15 60.8 °F 59.4 °F 29.9 in SSW 14.5 mph 28.2 mph 95% 0.07 in 0 W/m2
22:20 60.6 °F 59.7 °F 29.9 in SSW 18.3 mph 28.2 mph 97% 0.07 in 0 W/m2
22:25 60.4 °F 59.4 °F 29.9 in SSW 15.9 mph 29.8 mph 96% 0.08 in 0 W/m2
22:30 60.4 °F 59.5 °F 29.9 in SSW 17.4 mph 29.8 mph 97% 0.11 in 0 W/m2
22:35 60.1 °F 59.2 °F 29.9 in SW 14.5 mph 25.1 mph 97% 0.13 in 0 W/m2
22:40 60.1 °F 59.5 °F 29.9 in SW 19.7 mph 25.1 mph 98% 0.15 in 0 W/m2
22:45 60.1 °F 59.5 °F 29.9 in SW 13 mph 31.1 mph 98% 0.17 in 0 W/m2
22:50 59.9 °F 59.4 °F 29.9 in SW 14.5 mph 31.1 mph 98% 0.17 in 0 W/m2
22:55 59.9 °F 59.2 °F 29.9 in SW 18.3 mph 28.9 mph 97% 0.19 in 0 W/m2
23:00 59.9 °F 59.4 °F 29.9 in SW 15.2 mph 28.9 mph 98% 0.2 in 0 W/m2
23:05 59.7 °F 58.8 °F 29.9 in SW 15.9 mph 28.9 mph 97% 0.2 in 0 W/m2
23:10 59.5 °F 59 °F 29.9 in SW 25.1 mph 31.1 mph 98% 0.22 in 0 W/m2
23:15 59.5 °F 59 °F 29.9 in WSW 15.9 mph 31.1 mph 98% 0.24 in 0 W/m2
23:20 59 °F 58.5 °F 29.9 in WSW 10.7 mph 31.1 mph 98% 0.27 in 0 W/m2
23:25 59 °F 58.6 °F 29.9 in SW 13.6 mph 21.3 mph 99% 0.27 in 0 W/m2
23:30 58.8 °F 58.6 °F 29.9 in WSW 13 mph 21.3 mph 99% 0.26 in 0 W/m2
23:35 58.8 °F 58.6 °F 29.9 in WSW 12.1 mph 25.9 mph 99% 0.26 in 0 W/m2
23:40 58.1 °F 57.7 °F 29.9 in West 13 mph 25.9 mph 99% 0.28 in 0 W/m2
23:45 57.9 °F 57.7 °F 29.9 in West 12.1 mph 22.8 mph 99% 0.3 in 0 W/m2
23:50 58.3 °F 57.9 °F 29.9 in SW 13.6 mph 25.1 mph 99% 0.32 in 0 W/m2
23:55 58.3 °F 57.9 °F 29.9 in SSW 10.7 mph 25.1 mph 99% 0.32 in 0 W/m2
Northern Hawkes Bay. New Zealand Historic Data
Compliments of Weather Underground - 2 mb